Flaxville, Montana
Current Conditions -  °F | °C
As of 12:53 AM on Friday 31 Oct 2014 (Local Time) from KOLF Reporting Station
Overcast Overcast  
Wind Chill: 28°   Ceiling: 1500
Heat Index: 37°   Visibility: 10mi
Dew Point: 30°   Wind: 14mph
Humidity: 76%   Direction: 130°SE
Pressure: 30.38"   Gusts: 23mph
Location:  48.8°N, 105.17°W
Report Text: KOLF 310653Z AUTO 13012G20KT 10SM OVC015 03/M01 A3038 RMK AO2 SLP309 T00281011 400390006
Loading
Personal Weather Stations






























Interactive Weather Map
Tropical Storm Tracking
New forecast layout! Learn more

10-Day Weather Forecast

Advertisements
Track Severe Weather on mobile